createdAt,value
2023-05-21T00:01:51.046Z,102065.50
2023-05-21T00:03:57.403Z,102066.56
2023-05-21T00:06:04.081Z,102065.78
2023-05-21T00:08:08.299Z,102072.13
2023-05-21T00:10:15.426Z,102063.41
2023-05-21T00:12:19.683Z,102058.16
2023-05-21T00:14:24.026Z,102061.75
2023-05-21T00:16:28.037Z,102064.59
2023-05-21T00:18:32.794Z,102061.06
2023-05-21T00:20:37.405Z,102062.88
2023-05-21T00:22:42.615Z,102058.50
2023-05-21T00:24:46.702Z,102052.41
2023-05-21T00:26:51.851Z,102059.53
2023-05-21T00:28:55.630Z,102055.06
2023-05-21T00:30:59.555Z,102047.16
2023-05-21T00:33:04.758Z,102052.75
2023-05-21T00:35:11.307Z,102051.00
2023-05-21T00:37:15.456Z,102038.59
2023-05-21T00:39:19.031Z,102036.69
2023-05-21T00:41:25.800Z,102037.38
2023-05-21T00:43:33.842Z,102036.50
2023-05-21T00:45:38.050Z,102040.97
2023-05-21T00:47:44.339Z,102037.56
2023-05-21T00:49:48.518Z,102033.25
2023-05-21T00:51:53.858Z,102022.63
2023-05-21T00:53:59.974Z,102027.94
2023-05-21T00:56:04.678Z,102032.38
2023-05-21T00:58:09.440Z,102032.38
2023-05-21T01:00:16.616Z,102035.13
2023-05-21T01:02:20.777Z,102030.00
2023-05-21T01:04:25.511Z,102030.09
2023-05-21T01:06:30.098Z,102023.97
2023-05-21T01:08:35.276Z,102025.88
2023-05-21T01:10:39.821Z,102025.97
2023-05-21T01:12:46.739Z,102026.91
2023-05-21T01:14:51.785Z,102026.91
2023-05-21T01:16:57.990Z,102017.97
2023-05-21T01:19:03.760Z,102018.81
2023-05-21T01:21:10.100Z,102017.09
2023-05-21T01:23:16.624Z,102010.06
2023-05-21T01:25:21.508Z,102010.84
2023-05-21T01:27:25.815Z,102007.25
2023-05-21T01:29:30.380Z,102010.75
2023-05-21T01:31:42.225Z,102005.44
2023-05-21T01:33:52.979Z,102004.59
2023-05-21T01:36:04.240Z,101996.69
2023-05-21T01:38:17.124Z,102001.13
2023-05-21T01:40:27.497Z,101997.88
2023-05-21T01:42:33.550Z,102004.25
2023-05-21T01:44:37.973Z,101997.38
2023-05-21T01:46:42.151Z,101998.41
2023-05-21T01:48:46.797Z,101992.28
2023-05-21T01:50:53.174Z,101998.63
2023-05-21T01:52:58.832Z,102004.03
2023-05-21T01:55:05.136Z,102002.31
2023-05-21T01:57:08.985Z,102001.47
2023-05-21T01:59:16.108Z,101999.66
2023-05-21T02:01:21.061Z,101997.00
2023-05-21T02:03:31.896Z,101997.19
2023-05-21T02:05:36.197Z,101991.00
2023-05-21T02:07:40.650Z,101996.34
2023-05-21T02:09:44.610Z,101999.94
2023-05-21T02:11:49.536Z,101992.03
2023-05-21T02:13:54.657Z,101992.13
2023-05-21T02:15:58.448Z,101989.47
2023-05-21T02:18:03.640Z,101993.81
2023-05-21T02:20:11.602Z,101995.81
2023-05-21T02:22:15.499Z,102000.25
2023-05-21T02:24:20.070Z,102001.31
2023-05-21T02:26:24.081Z,101996.13
2023-05-21T02:28:29.987Z,102001.63
2023-05-21T02:30:34.497Z,102003.44
2023-05-21T02:32:39.924Z,101999.91
2023-05-21T02:34:45.323Z,101999.81
2023-05-21T02:36:52.591Z,102004.38
2023-05-21T02:38:57.971Z,102004.47
2023-05-21T02:41:02.486Z,101996.66
2023-05-21T02:43:07.996Z,102004.78
2023-05-21T02:45:15.198Z,102001.44
2023-05-21T02:47:21.305Z,102005.03
2023-05-21T02:49:25.229Z,102004.19
2023-05-21T02:51:29.186Z,102009.50
2023-05-21T02:53:36.350Z,102002.38
2023-05-21T02:55:41.540Z,102001.53
2023-05-21T02:57:45.383Z,102000.66
2023-05-21T02:59:49.974Z,102004.31
2023-05-21T03:01:56.762Z,102002.75
2023-05-21T03:04:01.500Z,102004.75
2023-05-21T03:06:10.317Z,101997.09
2023-05-21T03:08:14.103Z,101994.69
2023-05-21T03:10:18.497Z,101989.50
2023-05-21T03:12:24.213Z,101987.81
2023-05-21T03:14:29.544Z,101988.72
2023-05-21T03:16:34.887Z,101986.94
2023-05-21T03:18:39.885Z,101987.81
2023-05-21T03:20:45.872Z,101986.06
2023-05-21T03:22:50.128Z,101985.34
2023-05-21T03:24:54.719Z,101981.13
2023-05-21T03:26:59.401Z,101980.47
2023-05-21T03:29:02.907Z,101983.25
2023-05-21T03:31:06.681Z,101979.81
2023-05-21T03:33:14.087Z,101981.59
2023-05-21T03:35:20.998Z,101973.63
2023-05-21T03:37:25.090Z,101980.00
2023-05-21T03:39:28.885Z,101981.00
2023-05-21T03:41:33.199Z,101975.78
2023-05-21T03:43:43.480Z,101981.22
2023-05-21T03:45:47.249Z,101978.75
2023-05-21T03:48:25.248Z,101979.75
2023-05-21T03:50:30.266Z,101975.44
2023-05-21T03:52:33.799Z,101977.34
2023-05-21T03:54:37.875Z,101978.34
2023-05-21T03:56:44.292Z,101972.34
2023-05-21T03:58:48.549Z,101981.22
2023-05-21T04:00:52.154Z,101984.84
2023-05-21T04:02:55.892Z,101986.69
2023-05-21T04:04:59.545Z,101984.22
2023-05-21T04:07:05.284Z,101978.97
2023-05-21T04:09:08.895Z,101985.31
2023-05-21T04:11:13.186Z,101976.41
2023-05-21T04:13:17.095Z,101979.16
2023-05-21T04:15:21.167Z,101975.59
2023-05-21T04:17:27.102Z,101970.22
2023-05-21T04:19:32.233Z,101971.09
2023-05-21T04:21:36.888Z,101965.78
2023-05-21T04:23:42.956Z,101968.28
2023-05-21T04:25:59.197Z,101965.47
2023-05-21T04:28:02.869Z,101960.88
2023-05-21T04:30:07.396Z,101958.13
2023-05-21T04:32:15.629Z,101966.84
2023-05-21T04:34:22.118Z,101961.53
2023-05-21T04:36:25.632Z,101965.16
2023-05-21T04:38:29.392Z,101972.16
2023-05-21T04:40:34.115Z,101969.59
2023-05-21T04:42:41.762Z,101966.94
2023-05-21T04:44:46.802Z,101972.16
2023-05-21T04:46:50.801Z,101966.84
2023-05-21T04:48:55.453Z,101961.53
2023-05-21T04:51:00.282Z,101960.69
2023-05-21T04:53:04.724Z,101962.25
2023-05-21T04:55:09.040Z,101960.41
2023-05-21T04:57:14.215Z,101960.22
2023-05-21T04:59:18.867Z,101958.28
2023-05-21T05:01:24.095Z,101962.50
2023-05-21T05:03:27.631Z,101962.41
2023-05-21T05:05:31.912Z,101957.88
2023-05-21T05:07:36.168Z,101955.13
2023-05-21T05:09:40.204Z,101959.41
2023-05-21T05:11:43.676Z,101950.34
2023-05-21T05:13:48.498Z,101946.50
2023-05-21T05:15:54.450Z,101945.50
2023-05-21T05:17:58.408Z,101950.59
2023-05-21T05:20:02.060Z,101947.00
2023-05-21T05:22:06.200Z,101946.94
2023-05-21T05:24:10.475Z,101946.06
2023-05-21T05:26:13.850Z,101944.09
2023-05-21T05:28:17.713Z,101949.25
2023-05-21T05:30:23.884Z,101954.47
2023-05-21T05:32:28.501Z,101958.78
2023-05-21T05:34:32.957Z,101957.66
2023-05-21T05:36:36.824Z,101956.47
2023-05-21T05:38:44.583Z,101958.91
2023-05-21T05:40:48.083Z,101963.03
2023-05-21T05:42:54.882Z,101961.03
2023-05-21T05:45:01.492Z,101957.53
2023-05-21T05:47:10.911Z,101967.13
2023-05-21T05:49:15.973Z,101966.13
2023-05-21T05:51:19.826Z,101969.44
2023-05-21T05:53:25.277Z,101957.88
2023-05-21T05:55:29.377Z,101965.75
2023-05-21T05:57:34.309Z,101967.56
2023-05-21T05:59:45.679Z,101971.25
2023-05-21T06:01:53.012Z,101970.41
2023-05-21T06:04:01.141Z,101968.06
2023-05-21T06:06:06.963Z,101974.28
2023-05-21T06:08:11.986Z,101978.47
2023-05-21T06:10:15.481Z,101976.41
2023-05-21T06:12:24.296Z,101969.03
2023-05-21T06:14:31.515Z,101979.41
2023-05-21T06:16:38.862Z,101978.31
2023-05-21T06:18:42.693Z,101970.25
2023-05-21T06:20:47.996Z,101981.41
2023-05-21T06:22:53.692Z,101982.09
2023-05-21T06:24:58.273Z,101986.47
2023-05-21T06:27:02.248Z,101986.09
2023-05-21T06:29:06.097Z,101986.81
2023-05-21T06:31:09.766Z,101986.53
2023-05-21T06:33:15.152Z,101989.03
2023-05-21T06:35:22.052Z,101992.38
2023-05-21T06:37:27.161Z,101993.06
2023-05-21T06:39:32.018Z,101992.03
2023-05-21T06:41:36.167Z,101994.59
2023-05-21T06:43:57.042Z,102001.47
2023-05-21T06:46:19.149Z,101996.75
2023-05-21T06:48:22.624Z,101995.63
2023-05-21T06:50:26.464Z,102001.63
2023-05-21T06:52:32.094Z,101996.97
2023-05-21T06:54:37.956Z,101999.41
2023-05-21T06:56:42.568Z,102005.28
2023-05-21T06:58:46.174Z,101998.00
2023-05-21T07:00:49.645Z,101997.66
2023-05-21T07:02:54.576Z,102005.38
2023-05-21T07:04:58.145Z,101998.84
2023-05-21T07:07:01.947Z,102005.69
2023-05-21T07:09:07.198Z,102004.56
2023-05-21T07:11:11.751Z,102001.91
2023-05-21T07:13:15.619Z,102003.63
2023-05-21T07:15:19.312Z,102008.88
2023-05-21T07:17:22.901Z,101999.84
2023-05-21T07:19:26.609Z,102004.97
2023-05-21T07:21:30.297Z,102000.22
2023-05-21T07:23:34.224Z,101999.09
2023-05-21T07:25:39.436Z,102003.88
2023-05-21T07:27:49.148Z,102007.88
2023-05-21T07:29:52.345Z,102001.22
2023-05-21T07:31:57.552Z,102000.94
2023-05-21T07:34:01.072Z,102005.69
2023-05-21T07:36:09.231Z,102006.75
2023-05-21T07:38:12.973Z,102006.75
2023-05-21T07:40:16.453Z,102008.47
2023-05-21T07:42:22.359Z,102004.84
2023-05-21T07:44:26.093Z,102004.03
2023-05-21T07:46:29.558Z,102008.22
2023-05-21T07:48:35.552Z,102018.25
2023-05-21T07:50:40.196Z,102011.22
2023-05-21T07:52:44.636Z,102012.72
2023-05-21T07:54:50.922Z,102007.16
2023-05-21T07:56:54.683Z,102009.56
2023-05-21T07:59:38.381Z,102007.63
2023-05-21T08:01:43.968Z,102010.09
2023-05-21T08:03:47.708Z,102003.41
2023-05-21T08:05:52.161Z,102001.94
2023-05-21T08:07:55.729Z,102005.06
2023-05-21T08:10:00.595Z,102006.91
2023-05-21T08:12:06.270Z,102009.28
2023-05-21T08:14:10.369Z,102006.84
2023-05-21T08:16:15.453Z,102012.72
2023-05-21T08:18:19.411Z,102013.69
2023-05-21T08:20:23.756Z,102008.09
2023-05-21T08:22:27.631Z,102013.19
2023-05-21T08:24:32.406Z,102008.22
2023-05-21T08:26:41.652Z,102018.06
2023-05-21T08:28:45.496Z,102021.56
2023-05-21T08:30:49.463Z,102017.94
2023-05-21T08:32:56.582Z,102014.81
2023-05-21T08:35:02.888Z,102011.84
2023-05-21T08:37:20.586Z,102022.97
2023-05-21T08:39:40.394Z,102014.44
2023-05-21T08:41:50.101Z,102021.06
2023-05-21T08:43:58.578Z,102013.78
2023-05-21T08:46:06.422Z,102017.44
2023-05-21T08:48:19.213Z,102021.53
2023-05-21T08:50:27.433Z,102020.78
2023-05-21T08:52:35.387Z,102023.81
2023-05-21T08:54:40.190Z,102021.97
2023-05-21T08:56:49.533Z,102018.75
2023-05-21T08:58:55.098Z,102021.31
2023-05-21T09:01:03.372Z,102011.78
2023-05-21T09:03:10.716Z,102018.75
2023-05-21T09:05:19.344Z,102015.72
2023-05-21T09:07:27.601Z,102020.13
2023-05-21T09:09:58.912Z,102021.53
2023-05-21T09:12:03.537Z,102020.31
2023-05-21T09:14:08.351Z,102021.03
2023-05-21T09:16:32.341Z,102017.06
2023-05-21T09:18:37.606Z,102030.41
2023-05-21T09:21:27.166Z,102017.59
2023-05-21T09:23:35.262Z,102027.25
2023-05-21T09:25:40.724Z,102023.28
2023-05-21T09:27:50.962Z,102019.25
2023-05-21T09:29:59.276Z,102025.97
2023-05-21T09:32:10.276Z,102023.03
2023-05-21T09:34:21.842Z,102031.41
2023-05-21T09:36:29.816Z,102036.28
2023-05-21T09:38:36.319Z,102027.59
2023-05-21T09:40:46.459Z,102026.00
2023-05-21T09:42:52.954Z,102026.00
2023-05-21T09:44:58.731Z,102024.25
2023-05-21T09:47:04.701Z,102020.66
2023-05-21T09:49:08.649Z,102025.78
2023-05-21T09:51:14.463Z,102023.41
2023-05-21T09:53:20.827Z,102021.91
2023-05-21T09:55:29.258Z,102025.78
2023-05-21T09:57:35.990Z,102030.88
2023-05-21T09:59:42.796Z,102023.41
2023-05-21T10:01:47.901Z,102021.41
2023-05-21T10:03:57.930Z,102025.97
2023-05-21T10:06:03.125Z,102024.75
2023-05-21T10:08:11.054Z,102030.75
2023-05-21T10:10:17.265Z,102028.06
2023-05-21T10:12:24.916Z,102028.44
2023-05-21T10:14:35.328Z,102024.81
2023-05-21T10:16:39.931Z,102029.66
2023-05-21T10:18:47.138Z,102031.22
2023-05-21T10:20:54.241Z,102028.91
2023-05-21T10:22:59.969Z,102019.09
2023-05-21T10:25:06.167Z,102022.59
2023-05-21T10:27:13.954Z,102021.66
2023-05-21T10:29:21.509Z,102018.22
2023-05-21T10:31:29.936Z,102016.22
2023-05-21T10:33:35.922Z,102016.75
2023-05-21T10:35:42.571Z,102013.09
2023-05-21T10:37:47.818Z,102016.84
2023-05-21T10:39:54.378Z,102024.84
2023-05-21T10:42:06.653Z,102016.13
2023-05-21T10:44:28.441Z,102017.75
2023-05-21T10:47:20.546Z,102016.03
2023-05-21T10:50:01.510Z,102016.44
2023-05-21T10:52:14.772Z,102009.28
2023-05-21T10:54:40.258Z,102003.94
2023-05-21T10:56:50.689Z,101999.25
2023-05-21T10:59:22.530Z,102011.03
2023-05-21T11:01:30.771Z,102005.25
2023-05-21T11:03:38.071Z,101997.06
2023-05-21T11:05:43.079Z,102007.06
2023-05-21T11:07:54.022Z,101997.44
2023-05-21T11:10:32.986Z,101996.97
2023-05-21T11:12:39.043Z,101989.22
2023-05-21T11:14:58.888Z,101991.78
2023-05-21T11:17:04.325Z,101995.69
2023-05-21T11:19:08.495Z,101993.47
2023-05-21T11:21:13.832Z,101992.94
2023-05-21T11:23:17.672Z,102001.69
2023-05-21T11:25:21.839Z,101992.28
2023-05-21T11:27:36.154Z,101994.00
2023-05-21T11:29:47.496Z,101987.03
2023-05-21T11:32:03.229Z,101994.72
2023-05-21T11:34:17.370Z,101990.38
2023-05-21T11:36:21.228Z,101995.06
2023-05-21T11:38:25.290Z,101987.75
2023-05-21T11:40:31.269Z,101985.97
2023-05-21T11:42:36.875Z,101983.38
2023-05-21T11:44:41.508Z,101981.94
2023-05-21T11:46:48.124Z,101987.25
2023-05-21T11:48:54.212Z,101982.13
2023-05-21T11:51:00.210Z,101976.47
2023-05-21T11:53:05.001Z,101990.16
2023-05-21T11:55:09.830Z,101986.50
2023-05-21T11:57:16.890Z,101986.81
2023-05-21T11:59:21.455Z,101980.94
2023-05-21T12:01:26.877Z,101980.81
2023-05-21T12:03:36.516Z,101981.13
2023-05-21T12:05:46.594Z,101986.81
2023-05-21T12:07:51.596Z,101987.56
2023-05-21T12:09:56.048Z,101984.13
2023-05-21T12:11:59.931Z,101991.97
2023-05-21T12:14:03.673Z,101979.00
2023-05-21T12:16:08.503Z,101983.53
2023-05-21T12:18:12.094Z,101984.69
2023-05-21T12:20:18.504Z,101984.81
2023-05-21T12:22:24.057Z,101981.16
2023-05-21T12:24:28.674Z,101985.75
2023-05-21T12:26:35.656Z,101972.16
2023-05-21T12:28:39.686Z,101983.09
2023-05-21T12:30:43.462Z,101982.53
2023-05-21T12:32:47.252Z,101980.50
2023-05-21T12:34:52.879Z,101979.97
2023-05-21T12:36:58.667Z,101986.19
2023-05-21T12:39:02.989Z,101981.59
2023-05-21T12:41:08.333Z,101980.53
2023-05-21T12:43:12.644Z,101982.44
2023-05-21T12:45:23.000Z,101983.72
2023-05-21T12:47:29.334Z,101985.28
2023-05-21T12:49:36.220Z,101985.59
2023-05-21T12:51:41.161Z,101982.94
2023-05-21T12:53:47.797Z,101987.34
2023-05-21T12:55:52.042Z,101984.91
2023-05-21T12:58:05.377Z,101988.31
2023-05-21T13:00:10.524Z,101985.25
2023-05-21T13:02:23.360Z,101987.16
2023-05-21T13:04:27.354Z,101986.31
2023-05-21T13:06:32.032Z,101986.72
2023-05-21T13:08:36.478Z,101979.25
2023-05-21T13:10:41.799Z,101979.22
2023-05-21T13:12:46.225Z,101976.66
2023-05-21T13:14:50.011Z,101985.00
2023-05-21T13:16:53.690Z,101982.13
2023-05-21T13:18:57.822Z,101980.41
2023-05-21T13:21:01.698Z,101973.66
2023-05-21T13:23:08.352Z,101977.97
2023-05-21T13:25:16.130Z,101979.66
2023-05-21T13:27:21.318Z,101985.19
2023-05-21T13:29:26.177Z,101980.38
2023-05-21T13:31:30.416Z,101978.47
2023-05-21T13:33:34.792Z,101992.44
2023-05-21T13:35:38.767Z,101981.88
2023-05-21T13:37:42.925Z,101983.22
2023-05-21T13:39:46.777Z,101989.00
2023-05-21T13:41:50.544Z,101983.66
2023-05-21T13:43:56.032Z,101983.56
2023-05-21T13:45:59.864Z,101987.00
2023-05-21T13:48:03.846Z,101984.00
2023-05-21T13:50:09.090Z,101996.63
2023-05-21T13:52:13.501Z,101993.63
2023-05-21T13:54:20.539Z,102000.03
2023-05-21T13:56:24.445Z,102003.16
2023-05-21T13:58:28.402Z,101999.69
2023-05-21T14:00:33.905Z,102004.00
2023-05-21T14:02:38.186Z,101998.00
2023-05-21T14:04:42.423Z,102000.75
2023-05-21T14:06:46.332Z,102013.28
2023-05-21T14:08:50.208Z,102001.97
2023-05-21T14:10:54.118Z,102002.94
2023-05-21T14:13:04.693Z,102000.00
2023-05-21T14:15:16.283Z,102003.63
2023-05-21T14:17:21.314Z,102001.91
2023-05-21T14:19:25.003Z,101999.19
2023-05-21T14:21:28.673Z,102001.03
2023-05-21T14:23:32.444Z,101999.38
2023-05-21T14:25:36.319Z,101997.88
2023-05-21T14:27:41.744Z,101995.09
2023-05-21T14:29:45.818Z,101994.97
2023-05-21T14:31:49.617Z,101997.53
2023-05-21T14:33:54.732Z,101997.97
2023-05-21T14:35:58.704Z,101990.69
2023-05-21T14:38:02.517Z,101987.59
2023-05-21T14:40:08.261Z,101991.16
2023-05-21T14:42:12.113Z,101996.69
2023-05-21T14:44:16.038Z,101989.84
2023-05-21T14:46:20.905Z,101992.94
2023-05-21T14:48:25.827Z,101986.84
2023-05-21T14:50:32.077Z,101989.16
2023-05-21T14:52:36.630Z,101992.16
2023-05-21T14:54:40.903Z,101984.66
2023-05-21T14:56:45.082Z,101984.88
2023-05-21T14:58:49.527Z,101989.03
2023-05-21T15:00:53.966Z,101987.78
2023-05-21T15:02:58.429Z,101986.81
2023-05-21T15:05:03.434Z,101984.06
2023-05-21T15:07:09.271Z,101982.94
2023-05-21T15:09:13.278Z,101986.22
2023-05-21T15:11:17.157Z,101983.88
2023-05-21T15:13:21.629Z,101987.59
2023-05-21T15:15:25.617Z,101986.72
2023-05-21T15:17:29.490Z,101983.63
2023-05-21T15:19:33.488Z,101982.56
2023-05-21T15:21:37.384Z,101975.72
2023-05-21T15:23:42.967Z,101975.91
2023-05-21T15:25:47.388Z,101975.72
2023-05-21T15:27:52.226Z,101974.84
2023-05-21T15:29:56.216Z,101971.25
2023-05-21T15:32:01.521Z,101975.47
2023-05-21T15:34:05.743Z,101971.72
2023-05-21T15:36:10.255Z,101973.06
2023-05-21T15:38:14.877Z,101970.28
2023-05-21T15:40:20.940Z,101972.22
2023-05-21T15:42:25.498Z,101971.66
2023-05-21T15:44:29.655Z,101969.09
2023-05-21T15:46:33.323Z,101972.72
2023-05-21T15:48:37.202Z,101974.66
2023-05-21T15:50:41.167Z,101969.44
2023-05-21T15:52:45.131Z,101975.34
2023-05-21T15:54:48.964Z,101971.50
2023-05-21T15:56:55.249Z,101975.69
2023-05-21T15:59:01.571Z,101980.06
2023-05-21T16:01:05.590Z,101966.56
2023-05-21T16:03:09.793Z,101974.44
2023-05-21T16:05:13.661Z,101979.63
2023-05-21T16:07:17.739Z,101981.78
2023-05-21T16:09:21.713Z,101987.78
2023-05-21T16:11:26.361Z,101980.34
2023-05-21T16:13:31.529Z,101982.44
2023-05-21T16:15:35.453Z,101984.56
2023-05-21T16:17:39.457Z,101980.19
2023-05-21T16:19:43.342Z,101984.03
2023-05-21T16:21:47.027Z,101992.22
2023-05-21T16:23:52.062Z,101992.41
2023-05-21T16:25:56.105Z,101997.75
2023-05-21T16:28:00.154Z,101997.75
2023-05-21T16:30:07.674Z,101991.00
2023-05-21T16:32:14.377Z,101995.97
2023-05-21T16:34:19.047Z,101988.41
2023-05-21T16:36:23.358Z,101980.06
2023-05-21T16:38:27.692Z,101987.31
2023-05-21T16:40:32.248Z,101988.16
2023-05-21T16:42:36.438Z,101985.59
2023-05-21T16:44:42.466Z,101990.94
2023-05-21T16:46:49.598Z,101986.53
2023-05-21T16:48:54.255Z,101987.09
2023-05-21T16:50:58.750Z,101985.88
2023-05-21T16:53:03.625Z,101981.78
2023-05-21T16:55:09.101Z,101988.38
2023-05-21T16:57:13.136Z,101989.97
2023-05-21T16:59:17.227Z,101988.09
2023-05-21T17:01:21.274Z,101987.69
2023-05-21T17:03:26.783Z,101994.38
2023-05-21T17:05:30.626Z,101981.59
2023-05-21T17:07:34.520Z,101986.75
2023-05-21T17:09:38.339Z,101972.09
2023-05-21T17:11:43.843Z,101982.38
2023-05-21T17:13:48.701Z,101973.59
2023-05-21T17:15:52.631Z,101981.22
2023-05-21T17:18:00.534Z,101979.13
2023-05-21T17:20:08.149Z,101977.34
2023-05-21T17:22:13.991Z,101976.19
2023-05-21T17:24:18.096Z,101963.81
2023-05-21T17:26:23.838Z,101972.56
2023-05-21T17:28:27.812Z,101968.25
2023-05-21T17:30:31.748Z,101976.09
2023-05-21T17:32:36.927Z,101977.81
2023-05-21T17:34:41.082Z,101978.84
2023-05-21T17:36:46.941Z,101982.34
2023-05-21T17:38:51.108Z,101977.41
2023-05-21T17:40:56.680Z,101988.81
2023-05-21T17:43:00.408Z,101988.81
2023-05-21T17:45:04.625Z,101993.59
2023-05-21T17:47:09.153Z,101990.94
2023-05-21T17:49:15.886Z,101987.03
2023-05-21T17:51:20.108Z,101983.22
2023-05-21T17:53:25.451Z,101984.94
2023-05-21T17:55:30.911Z,101985.22
2023-05-21T17:57:35.912Z,101990.25
2023-05-21T17:59:46.971Z,101983.41
2023-05-21T18:01:53.522Z,101986.84
2023-05-21T18:03:58.893Z,101990.63
2023-05-21T18:06:05.063Z,101992.34
2023-05-21T18:08:12.274Z,101989.69
2023-05-21T18:10:18.779Z,101993.28
2023-05-21T18:12:24.259Z,101989.28
2023-05-21T18:14:30.301Z,101991.19
2023-05-21T18:16:40.222Z,101980.69
2023-05-21T18:18:47.621Z,101996.88
2023-05-21T18:20:54.842Z,101987.34
2023-05-21T18:23:00.881Z,101991.75
2023-05-21T18:25:09.353Z,101996.88
2023-05-21T18:27:18.265Z,101998.09
2023-05-21T18:29:26.960Z,101996.38
2023-05-21T18:31:34.173Z,101994.84
2023-05-21T18:33:42.720Z,101991.44
2023-05-21T18:35:48.187Z,101987.84
2023-05-21T18:37:54.585Z,101989.91
2023-05-21T18:40:07.321Z,101995.41
2023-05-21T18:42:15.347Z,101995.59
2023-05-21T18:44:25.243Z,101999.03
2023-05-21T18:46:30.579Z,101996.09
2023-05-21T18:48:35.211Z,102005.00
2023-05-21T18:50:40.192Z,101998.84
2023-05-21T18:52:47.079Z,102006.13
2023-05-21T18:54:53.656Z,102007.97
2023-05-21T18:57:03.445Z,102006.34
2023-05-21T18:59:11.453Z,102004.34
2023-05-21T19:01:18.945Z,102012.25
2023-05-21T19:03:23.573Z,102004.50
2023-05-21T19:05:30.141Z,102002.81
2023-05-21T19:07:34.715Z,102009.78
2023-05-21T19:09:39.223Z,102014.22
2023-05-21T19:11:43.052Z,102007.19
2023-05-21T19:13:48.620Z,102005.59
2023-05-21T19:15:55.272Z,102013.63
2023-05-21T19:18:04.046Z,102012.88
2023-05-21T19:20:10.540Z,102012.94
2023-05-21T19:22:16.134Z,102013.13
2023-05-21T19:24:22.113Z,102010.53
2023-05-21T19:26:31.435Z,102010.72
2023-05-21T19:28:36.422Z,102004.53
2023-05-21T19:30:42.567Z,102006.31
2023-05-21T19:32:49.210Z,102001.00
2023-05-21T19:34:57.723Z,102009.59
2023-05-21T19:37:02.879Z,102008.03
2023-05-21T19:39:09.276Z,102010.19
2023-05-21T19:41:31.727Z,102016.56
2023-05-21T19:43:38.049Z,102010.28
2023-05-21T19:45:44.345Z,102018.78
2023-05-21T19:47:59.745Z,102015.84
2023-05-21T19:50:09.133Z,102010.13
2023-05-21T19:52:14.070Z,102013.75
2023-05-21T19:54:19.102Z,102017.34
2023-05-21T19:56:23.892Z,102016.56
2023-05-21T19:58:31.251Z,102009.34
2023-05-21T20:00:35.794Z,102014.50
2023-05-21T20:02:41.263Z,102003.84
2023-05-21T20:04:46.301Z,102008.84
2023-05-21T20:06:53.828Z,102009.41
2023-05-21T20:08:59.380Z,102010.22
2023-05-21T20:11:04.546Z,102016.91
2023-05-21T20:13:10.113Z,102017.41
2023-05-21T20:15:15.502Z,102010.25
2023-05-21T20:17:20.414Z,102018.09
2023-05-21T20:19:24.313Z,102014.47
2023-05-21T20:21:29.342Z,102021.50
2023-05-21T20:23:35.637Z,102022.47
2023-05-21T20:25:41.282Z,102021.59
2023-05-21T20:27:45.744Z,102027.72
2023-05-21T20:29:50.458Z,102029.41
2023-05-21T20:31:54.618Z,102023.31
2023-05-21T20:33:59.497Z,102029.41
2023-05-21T20:36:06.573Z,102025.03
2023-05-21T20:38:12.029Z,102024.25
2023-05-21T20:40:19.283Z,102031.41
2023-05-21T20:42:27.940Z,102029.78
2023-05-21T20:44:34.400Z,102028.34
2023-05-21T20:46:41.393Z,102028.34
2023-05-21T20:48:45.537Z,102030.22
2023-05-21T20:50:50.331Z,102026.59
2023-05-21T20:52:58.737Z,102031.00
2023-05-21T20:55:04.848Z,102026.00
2023-05-21T20:57:10.941Z,102029.16
2023-05-21T20:59:14.797Z,102041.13
2023-05-21T21:01:19.877Z,102028.75
2023-05-21T21:03:24.496Z,102035.13
2023-05-21T21:05:29.176Z,102031.50
2023-05-21T21:07:34.519Z,102032.19
2023-05-21T21:09:40.474Z,102020.50
2023-05-21T21:11:44.794Z,102026.88
2023-05-21T21:13:50.632Z,102024.22
2023-05-21T21:15:55.875Z,102029.53
2023-05-21T21:18:00.087Z,102026.03
2023-05-21T21:20:06.471Z,102015.53
2023-05-21T21:22:11.076Z,102028.94
2023-05-21T21:24:15.984Z,102022.69
2023-05-21T21:26:20.428Z,102032.38
2023-05-21T21:28:24.587Z,102026.09
2023-05-21T21:30:29.651Z,102028.59
2023-05-21T21:32:33.814Z,102035.47
2023-05-21T21:34:37.793Z,102030.13
2023-05-21T21:36:41.990Z,102031.16
2023-05-21T21:38:45.775Z,102026.69
2023-05-21T21:40:50.012Z,102021.19
2023-05-21T21:42:54.554Z,102023.84
2023-05-21T21:44:58.178Z,102030.69
2023-05-21T21:47:04.490Z,102029.75
2023-05-21T21:49:08.284Z,102027.91
2023-05-21T21:51:13.135Z,102028.75
2023-05-21T21:53:17.102Z,102027.72
2023-05-21T21:55:21.494Z,102025.66
2023-05-21T21:57:27.907Z,102023.56
2023-05-21T21:59:31.804Z,102027.72
2023-05-21T22:01:36.277Z,102023.91
2023-05-21T22:03:41.791Z,102020.38
2023-05-21T22:05:46.412Z,102024.06
2023-05-21T22:07:50.979Z,102026.81
2023-05-21T22:09:54.808Z,102024.06
2023-05-21T22:11:58.768Z,102024.94
2023-05-21T22:14:03.147Z,102028.38
2023-05-21T22:16:08.006Z,102032.66
2023-05-21T22:18:13.151Z,102030.69
2023-05-21T22:20:18.961Z,102037.53
2023-05-21T22:22:23.561Z,102028.50
2023-05-21T22:24:32.493Z,102024.72
2023-05-21T22:26:37.202Z,102017.38
2023-05-21T22:28:41.138Z,102030.53
2023-05-21T22:30:45.779Z,102033.94
2023-05-21T22:32:49.833Z,102025.84
2023-05-21T22:34:53.681Z,102028.44
2023-05-21T22:36:59.249Z,102024.81
2023-05-21T22:39:03.888Z,102015.88
2023-05-21T22:41:08.925Z,102019.47
2023-05-21T22:43:13.075Z,102023.78
2023-05-21T22:45:19.137Z,102024.63
2023-05-21T22:47:23.228Z,102017.59
2023-05-21T22:49:28.041Z,102018.44
2023-05-21T22:51:34.860Z,102019.47
2023-05-21T22:53:40.401Z,102020.63
2023-05-21T22:55:44.333Z,102019.88
2023-05-21T22:57:49.810Z,102016.22
2023-05-21T22:59:53.836Z,102021.56
2023-05-21T23:01:58.363Z,102015.38
2023-05-21T23:04:02.442Z,102023.47
2023-05-21T23:06:06.791Z,102032.41
2023-05-21T23:08:11.437Z,102017.38
2023-05-21T23:10:17.308Z,102023.66
2023-05-21T23:12:21.348Z,102019.38
2023-05-21T23:14:25.591Z,102016.81
2023-05-21T23:16:31.015Z,102016.81
2023-05-21T23:18:35.703Z,102017.66
2023-05-21T23:20:42.327Z,102012.13
2023-05-21T23:22:47.057Z,102013.84
2023-05-21T23:24:52.587Z,102014.81
2023-05-21T23:27:03.050Z,102018.34
2023-05-21T23:29:07.306Z,102021.94
2023-05-21T23:31:11.469Z,102012.22
2023-05-21T23:33:16.313Z,102021.34
2023-05-21T23:35:20.485Z,102014.41
2023-05-21T23:37:24.477Z,102011.84
2023-05-21T23:39:29.580Z,102015.44
2023-05-21T23:41:33.890Z,102023.53
2023-05-21T23:43:40.328Z,102022.69
2023-05-21T23:45:44.160Z,102026.97
2023-05-21T23:47:48.246Z,102026.97
2023-05-21T23:49:52.423Z,102023.34
2023-05-21T23:51:57.048Z,102028.66
2023-05-21T23:54:00.661Z,102025.94
2023-05-21T23:56:06.951Z,102029.44
2023-05-21T23:58:10.969Z,102033.94
